Time;durP1;ratioP1;P1;durP2;ratioP2;P2;SDS_P1;SDS_P2;PMS_P1;PMS_P2;Temp;Humidity;BMP_temperature;BMP_pressure;BME280_temperature;BME280_humidity;BME280_pressure;Samples;Min_cycle;Max_cycle;Signal;HPM_P1;HPM_P2
2021/01/25 00:00:37;;;;;;;8.57;5.95;;;;;;;-144.01;100.00;62166.59;5068193;28;20056;-64
2021/01/25 00:03:05;;;;;;;6.90;5.18;;;;;;;-144.01;100.00;62166.59;5064930;28;20075;-61
2021/01/25 00:05:34;;;;;;;7.97;5.72;;;;;;;-144.01;100.00;62166.59;5066826;28;20068;-60
2021/01/25 00:08:02;;;;;;;9.70;5.63;;;;;;;-144.01;100.00;62166.59;5065605;28;20447;-59
2021/01/25 00:10:29;;;;;;;8.20;5.45;;;;;;;-144.01;100.00;62166.59;5065267;28;20048;-61
2021/01/25 00:12:56;;;;;;;6.45;4.68;;;;;;;-144.01;100.00;62166.59;5067290;28;20052;-59
2021/01/25 00:15:24;;;;;;;7.47;5.15;;;;;;;-144.01;100.00;62166.59;5067834;28;20052;-58
2021/01/25 00:17:51;;;;;;;7.57;4.75;;;;;;;-144.01;100.00;62166.59;5066648;28;20064;-56
2021/01/25 00:20:18;;;;;;;6.95;4.90;;;;;;;-144.01;100.00;62166.59;5066493;28;20079;-59
2021/01/25 00:22:45;;;;;;;6.53;4.10;;;;;;;-144.01;100.00;62166.59;5064033;28;20051;-59
2021/01/25 00:25:13;;;;;;;7.97;4.00;;;;;;;-144.01;100.00;62166.59;5067562;28;20045;-59
2021/01/25 00:27:40;;;;;;;6.93;4.10;;;;;;;-144.01;100.00;62166.59;5065463;28;20067;-65
2021/01/25 00:30:09;;;;;;;7.22;4.38;;;;;;;-144.01;100.00;62166.59;5065608;28;20372;-58
2021/01/25 00:32:36;;;;;;;7.90;4.53;;;;;;;-144.01;100.00;62166.59;5067278;28;20055;-59
2021/01/25 00:35:03;;;;;;;6.72;3.95;;;;;;;-144.01;100.00;62166.59;5064722;28;20463;-62
2021/01/25 00:37:30;;;;;;;7.35;4.60;;;;;;;-144.01;100.00;62166.59;5066110;28;20431;-57
2021/01/25 00:39:58;;;;;;;8.50;4.53;;;;;;;-144.01;100.00;62166.59;5063553;28;20045;-56
2021/01/25 00:42:25;;;;;;;7.35;4.57;;;;;;;-144.01;100.00;62166.59;5065395;28;20056;-56
2021/01/25 00:44:52;;;;;;;6.97;4.18;;;;;;;-144.01;100.00;62166.59;5064460;28;20045;-54
2021/01/25 00:47:19;;;;;;;7.57;4.45;;;;;;;-144.01;100.00;62166.59;5067397;28;20055;-57
2021/01/25 00:49:46;;;;;;;5.22;4.00;;;;;;;-144.01;100.00;62166.59;5067649;28;20048;-58
2021/01/25 00:52:14;;;;;;;5.20;3.40;;;;;;;-144.01;100.00;62166.59;5064674;28;20052;-55
2021/01/25 00:54:41;;;;;;;14.15;4.93;;;;;;;-144.01;100.00;62166.59;5066840;28;20051;-66
2021/01/25 00:57:08;;;;;;;8.55;4.47;;;;;;;-144.01;100.00;62166.59;5067190;28;20053;-61
2021/01/25 00:59:35;;;;;;;7.80;4.60;;;;;;;-144.01;100.00;62166.59;5064174;28;20044;-54
2021/01/25 01:02:03;;;;;;;7.70;4.45;;;;;;;-144.01;100.00;62166.59;5063750;28;20048;-58
2021/01/25 01:04:30;;;;;;;6.50;4.35;;;;;;;-144.01;100.00;62166.59;5091214;28;20041;-55
2021/01/25 01:06:57;;;;;;;8.00;5.70;;;;;;;-144.01;100.00;62166.59;5061355;28;20052;-57
2021/01/25 01:09:24;;;;;;;5.65;4.03;;;;;;;-144.01;100.00;62166.59;5069000;28;20048;-57
2021/01/25 01:11:51;;;;;;;6.22;4.60;;;;;;;-144.01;100.00;62166.59;5062744;28;20055;-58
2021/01/25 01:14:18;;;;;;;7.53;4.28;;;;;;;-144.01;100.00;62166.59;5068054;28;20044;-57
2021/01/25 01:16:45;;;;;;;6.10;4.13;;;;;;;-144.01;100.00;62166.59;5076187;28;20055;-59
2021/01/25 01:19:12;;;;;;;4.78;3.40;;;;;;;-144.01;100.00;62166.59;5067192;28;20052;-58
2021/01/25 01:21:40;;;;;;;7.22;3.80;;;;;;;-144.01;100.00;62166.59;5065946;28;20056;-54
2021/01/25 01:24:07;;;;;;;7.13;3.70;;;;;;;-144.01;100.00;62166.59;5072496;28;20049;-57
2021/01/25 01:26:35;;;;;;;6.95;4.30;;;;;;;-144.01;100.00;62166.59;5084691;28;20044;-60
2021/01/25 01:29:03;;;;;;;6.07;4.60;;;;;;;-144.01;100.00;62166.59;5064156;28;20264;-66
2021/01/25 01:31:30;;;;;;;6.90;4.15;;;;;;;-144.01;100.00;62166.59;5065312;28;20060;-59
2021/01/25 01:33:57;;;;;;;7.93;4.15;;;;;;;-144.01;100.00;62166.59;5066000;28;20056;-58
2021/01/25 01:36:24;;;;;;;5.70;4.03;;;;;;;-144.01;100.00;62166.59;5063948;28;20045;-56
2021/01/25 01:38:52;;;;;;;7.25;4.95;;;;;;;-144.01;100.00;62166.59;5065723;28;20374;-62
2021/01/25 01:41:19;;;;;;;10.57;5.85;;;;;;;-144.01;100.00;62166.59;5066152;28;20052;-57
2021/01/25 01:43:47;;;;;;;8.30;4.63;;;;;;;-144.01;100.00;62166.59;5064207;28;20045;-56
2021/01/25 01:46:15;;;;;;;6.72;4.25;;;;;;;-144.01;100.00;62166.59;5065514;28;20057;-56
2021/01/25 01:48:43;;;;;;;6.63;4.22;;;;;;;-144.01;100.00;62166.59;5087611;28;20048;-71
2021/01/25 01:51:10;;;;;;;9.20;5.63;;;;;;;-144.01;100.00;62166.59;5062283;28;20053;-63
2021/01/25 01:53:37;;;;;;;6.68;4.43;;;;;;;-144.01;100.00;62166.59;5061867;28;20049;-69
2021/01/25 01:56:05;;;;;;;5.93;3.83;;;;;;;-144.01;100.00;62166.59;5064309;28;20045;-62
2021/01/25 01:58:32;;;;;;;5.35;3.35;;;;;;;-144.01;100.00;62166.59;5063197;28;20032;-61
2021/01/25 02:00:59;;;;;;;4.95;2.25;;;;;;;-144.01;100.00;62166.59;5064699;28;20415;-61
2021/01/25 02:03:26;;;;;;;4.63;1.98;;;;;;;-144.01;100.00;62166.59;5062740;28;20060;-57
2021/01/25 02:05:53;;;;;;;3.45;1.48;;;;;;;-144.01;100.00;62166.59;5061295;28;20053;-58
2021/01/25 02:08:21;;;;;;;3.17;1.38;;;;;;;-144.01;100.00;62166.59;5061026;28;20056;-62
2021/01/25 02:10:50;;;;;;;2.75;1.10;;;;;;;-144.01;100.00;62166.59;5088586;28;20048;-59
2021/01/25 02:13:18;;;;;;;5.53;1.35;;;;;;;-144.01;100.00;62166.59;5063563;28;20040;-63
2021/01/25 02:15:45;;;;;;;4.50;1.40;;;;;;;-144.01;100.00;62166.59;5086008;28;20083;-61
2021/01/25 02:18:12;;;;;;;2.28;1.00;;;;;;;-144.01;100.00;62166.59;5084438;28;20045;-62
2021/01/25 02:20:44;;;;;;;3.67;1.30;;;;;;;-144.01;100.00;62166.59;5080781;28;20055;-60
2021/01/25 02:23:32;;;;;;;1.48;0.90;;;;;;;-144.01;100.00;62166.59;5060055;28;20049;-65
2021/01/25 02:26:03;;;;;;;2.25;1.20;;;;;;;-144.01;100.00;62166.59;5070846;28;20056;-62
2021/01/25 02:28:30;;;;;;;2.63;1.02;;;;;;;-144.01;100.00;62166.59;5075950;28;20048;-63
2021/01/25 02:31:00;;;;;;;4.18;1.08;;;;;;;-144.01;100.00;62166.59;5054452;28;20084;-66
2021/01/25 02:33:29;;;;;;;3.25;2.08;;;;;;;-144.01;100.00;62166.59;5054507;28;20033;-66
2021/01/25 02:35:56;;;;;;;2.35;1.00;;;;;;;-144.01;100.00;62166.59;5053740;28;20065;-62
2021/01/25 02:38:24;;;;;;;2.33;0.98;;;;;;;-144.01;100.00;62166.59;5053249;28;20048;-67
2021/01/25 02:40:51;;;;;;;2.25;1.38;;;;;;;-144.01;100.00;62166.59;5053401;28;20052;-62
2021/01/25 02:43:18;;;;;;;2.08;1.10;;;;;;;-144.01;100.00;62166.59;5053645;28;20482;-62
2021/01/25 02:45:46;;;;;;;2.78;1.20;;;;;;;-144.01;100.00;62166.59;5064045;28;20526;-63
2021/01/25 02:48:13;;;;;;;2.92;1.30;;;;;;;-144.01;100.00;62166.59;5080132;28;20048;-67
2021/01/25 02:50:48;;;;;;;1.92;0.75;;;;;;;-144.01;100.00;62166.59;5054993;28;20048;-62
2021/01/25 02:53:15;;;;;;;2.10;0.80;;;;;;;-144.01;100.00;62166.59;5055012;28;20831;-67
2021/01/25 02:55:42;;;;;;;3.03;0.95;;;;;;;-144.01;100.00;62166.59;5051766;28;20108;-63
2021/01/25 02:58:10;;;;;;;2.25;0.90;;;;;;;-144.01;100.00;62166.59;5046967;28;20048;-64
2021/01/25 03:00:37;;;;;;;1.42;0.80;;;;;;;-144.01;100.00;62166.59;5055657;28;20060;-65
2021/01/25 03:03:05;;;;;;;2.35;0.75;;;;;;;-144.01;100.00;62166.59;5039229;28;20053;-67
2021/01/25 03:05:32;;;;;;;2.15;0.85;;;;;;;-144.01;100.00;62166.59;5066142;28;20061;-67
2021/01/25 03:08:00;;;;;;;1.58;0.65;;;;;;;-144.01;100.00;62166.59;5070844;28;20049;-65
2021/01/25 03:10:27;;;;;;;1.00;0.80;;;;;;;-144.01;100.00;62166.59;5039154;28;20060;-67
2021/01/25 03:13:05;;;;;;;1.30;0.52;;;;;;;-144.01;100.00;62166.59;5054498;28;20065;-67
2021/01/25 03:15:36;;;;;;;0.98;0.50;;;;;;;-144.01;100.00;62166.59;5056240;28;20052;-67
2021/01/25 03:18:04;;;;;;;1.08;0.50;;;;;;;-144.01;100.00;62166.59;5070455;28;20108;-63
2021/01/25 03:20:31;;;;;;;2.92;0.80;;;;;;;-144.01;100.00;62166.59;5058689;28;20378;-66
2021/01/25 03:22:58;;;;;;;1.40;0.68;;;;;;;-144.01;100.00;62166.59;5058655;28;20052;-68
2021/01/25 03:25:25;;;;;;;2.00;0.60;;;;;;;-144.01;100.00;62166.59;5058699;28;20056;-67
2021/01/25 03:27:53;;;;;;;1.50;0.60;;;;;;;-144.01;100.00;62166.59;5058216;28;20033;-67
2021/01/25 03:30:20;;;;;;;2.05;0.98;;;;;;;-144.01;100.00;62166.59;5058412;28;20442;-66
2021/01/25 03:32:47;;;;;;;0.70;0.47;;;;;;;-144.01;100.00;62166.59;5058669;28;20052;-67
2021/01/25 03:35:15;;;;;;;1.33;0.50;;;;;;;-144.01;100.00;62166.59;5058614;28;20049;-65
2021/01/25 03:37:42;;;;;;;1.73;0.40;;;;;;;-144.01;100.00;62166.59;5058200;28;20056;-66
2021/01/25 03:40:09;;;;;;;0.38;0.28;;;;;;;-144.01;100.00;62166.59;5058457;28;20498;-59
2021/01/25 03:42:36;;;;;;;0.50;0.30;;;;;;;-144.01;100.00;62166.59;5057994;28;20056;-63
2021/01/25 03:45:05;;;;;;;0.60;0.28;;;;;;;-144.01;100.00;62166.59;5054922;28;20052;-58
2021/01/25 03:47:32;;;;;;;0.43;0.28;;;;;;;-144.01;100.00;62166.59;5075015;28;20057;-65
2021/01/25 03:49:59;;;;;;;0.47;0.25;;;;;;;-144.01;100.00;62166.59;5048572;28;20049;-64
2021/01/25 03:52:28;;;;;;;0.70;0.32;;;;;;;-144.01;100.00;62166.59;5038235;28;20041;-65
2021/01/25 03:54:55;;;;;;;1.48;0.40;;;;;;;-144.01;100.00;62166.59;5038291;28;20656;-66
2021/01/25 03:57:22;;;;;;;1.10;0.60;;;;;;;-144.01;100.00;62166.59;5039216;28;20056;-64
2021/01/25 03:59:49;;;;;;;1.75;0.50;;;;;;;-144.01;100.00;62166.59;5057872;28;20049;-60
2021/01/25 04:02:16;;;;;;;0.60;0.40;;;;;;;-144.01;100.00;62166.59;5058048;28;20063;-65
2021/01/25 04:04:44;;;;;;;0.70;0.32;;;;;;;-144.01;100.00;62166.59;5058024;28;20482;-65
2021/01/25 04:07:11;;;;;;;0.98;0.40;;;;;;;-144.01;100.00;62166.59;5057076;28;20448;-61
2021/01/25 04:09:39;;;;;;;1.30;0.20;;;;;;;-144.01;100.00;62166.59;5043021;28;20049;-63
2021/01/25 04:12:07;;;;;;;0.47;0.30;;;;;;;-144.01;100.00;62166.59;5053390;28;20045;-65
2021/01/25 04:14:34;;;;;;;0.95;0.30;;;;;;;-144.01;100.00;62166.59;5039332;28;20045;-62
2021/01/25 04:17:02;;;;;;;1.15;0.40;;;;;;;-144.01;100.00;62166.59;5077762;28;20048;-59
2021/01/25 04:19:29;;;;;;;2.45;0.50;;;;;;;-144.01;100.00;62166.59;5045938;28;20049;-65
2021/01/25 04:21:56;;;;;;;0.50;0.30;;;;;;;-144.01;100.00;62166.59;5037919;28;20052;-63
2021/01/25 04:24:23;;;;;;;0.30;0.20;;;;;;;-144.01;100.00;62166.59;5037536;28;20060;-67
2021/01/25 04:26:50;;;;;;;0.47;0.30;;;;;;;-144.01;100.00;62166.59;5037758;28;20052;-65
2021/01/25 04:29:17;;;;;;;0.47;0.30;;;;;;;-144.01;100.00;62166.59;5053520;28;20052;-62
2021/01/25 04:31:44;;;;;;;0.50;0.30;;;;;;;-144.01;100.00;62166.59;5057392;28;20064;-66
2021/01/25 04:34:11;;;;;;;0.30;0.22;;;;;;;-144.01;100.00;62166.59;5050815;28;20475;-64
2021/01/25 04:36:38;;;;;;;0.50;0.30;;;;;;;-144.01;100.00;62166.59;5037375;28;20060;-65
2021/01/25 04:39:06;;;;;;;0.65;0.40;;;;;;;-144.01;100.00;62166.59;5051541;28;20061;-63
2021/01/25 04:41:33;;;;;;;0.50;0.30;;;;;;;-144.01;100.00;62166.59;5057180;28;20040;-67
2021/01/25 04:44:01;;;;;;;0.85;0.50;;;;;;;-144.01;100.00;62166.59;5055916;28;20047;-62
2021/01/25 04:46:29;;;;;;;0.80;0.45;;;;;;;-144.01;100.00;62166.59;5066580;28;20056;-66
2021/01/25 04:48:56;;;;;;;0.70;0.43;;;;;;;-144.01;100.00;62166.59;5049657;28;20052;-65
2021/01/25 04:51:39;;;;;;;0.80;0.40;;;;;;;;;;5133672;27;19955;-62
2021/01/25 04:54:06;;;;;;;0.90;0.60;;;;;;;;;;5113301;28;20039;-65
2021/01/25 04:56:36;;;;;;;1.00;0.70;;;;;;;;;;5112817;28;20039;-59
2021/01/25 04:59:03;;;;;;;1.35;0.95;;;;;;;;;;5090739;28;20047;-58
2021/01/25 05:01:30;;;;;;;0.75;0.47;;;;;;;;;;5092687;28;20041;-61
2021/01/25 05:03:57;;;;;;;3.28;0.82;;;;;;;;;;5111063;28;20043;-66
2021/01/25 05:06:24;;;;;;;0.95;0.35;;;;;;;;;;5112982;28;20035;-68
2021/01/25 05:08:51;;;;;;;1.30;0.60;;;;;;;;;;5112581;28;20049;-67
2021/01/25 05:11:18;;;;;;;0.88;0.55;;;;;;;;;;5112733;28;20089;-62
2021/01/25 05:13:45;;;;;;;1.55;0.45;;;;;;;;;;5098080;28;20447;-64
2021/01/25 05:16:16;;;;;;;1.05;0.52;;;;;;;;;;5091896;28;20037;-72
2021/01/25 05:18:43;;;;;;;0.82;0.40;;;;;;;;;;5092227;28;20047;-70
2021/01/25 05:21:10;;;;;;;0.52;0.30;;;;;;;;;;5109484;28;20059;-71
2021/01/25 05:23:38;;;;;;;0.95;0.57;;;;;;;;;;5101407;28;20059;-72
2021/01/25 05:26:08;;;;;;;1.45;0.60;;;;;;;;;;5091833;28;20047;-73
2021/01/25 05:28:39;;;;;;;1.02;0.63;;;;;;;;;;5092193;28;20044;-69
2021/01/25 05:31:17;;;;;;;1.30;0.80;;;;;;;;;;5092022;28;20036;-69
2021/01/25 05:33:44;;;;;;;2.95;1.00;;;;;;;;;;5092286;28;20367;-68
2021/01/25 05:36:11;;;;;;;0.77;0.50;;;;;;;;;;5091634;28;20040;-70
2021/01/25 05:38:37;;;;;;;1.42;0.57;;;;;;;;;;5092055;28;20051;-68
2021/01/25 05:41:05;;;;;;;1.30;0.60;;;;;;;;;;5074293;28;20055;-69
2021/01/25 05:43:33;;;;;;;0.90;0.50;;;;;;;;;;5091960;28;20048;-69
2021/01/25 05:46:10;;;;;;;0.70;0.47;;;;;;;;;;5091474;28;20055;-70
2021/01/25 05:48:37;;;;;;;2.22;1.10;;;;;;;;;;5091803;28;20447;-69
2021/01/25 05:51:19;;;;;;;1.35;1.00;;;;;;;;;;5091659;28;20052;-69
2021/01/25 05:53:47;;;;;;;1.30;0.85;;;;;;;;;;5091798;28;20048;-69
2021/01/25 05:56:14;;;;;;;1.58;0.63;;;;;;;;;;5101077;28;20047;-69
2021/01/25 05:58:41;;;;;;;0.95;0.60;;;;;;;;;;5091895;28;20354;-70
2021/01/25 06:01:09;;;;;;;1.20;0.75;;;;;;;;;;5088034;28;20048;-69
2021/01/25 06:03:37;;;;;;;1.15;0.70;;;;;;;;;;5078062;28;20055;-69
2021/01/25 06:06:05;;;;;;;1.33;0.80;;;;;;;;;;5067970;28;20040;-69
2021/01/25 06:08:51;;;;;;;1.42;0.70;;;;;;;;;;5098407;28;20469;-69
2021/01/25 06:11:18;;;;;;;1.52;0.90;;;;;;;;;;5088972;28;20399;-69
2021/01/25 06:13:50;;;;;;;0.70;0.40;;;;;;;;;;5077925;28;20383;-69
2021/01/25 06:16:17;;;;;;;;;;;;;;;;;;5087348;28;20048;-67
2021/01/25 06:18:46;;;;;;;1.27;0.77;;;;;;;;;;5098049;28;19915;-68
2021/01/25 06:21:17;;;;;;;1.30;0.80;;;;;;;;;;5097778;28;20052;-69
2021/01/25 06:23:45;;;;;;;1.93;1.10;;;;;;;;;;5097521;28;20036;-69
2021/01/25 06:26:14;;;;;;;3.28;1.48;;;;;;;;;;5089041;28;20274;-69
2021/01/25 06:28:42;;;;;;;1.35;1.02;;;;;;;;;;5089882;28;20044;-69
2021/01/25 06:31:09;;;;;;;1.92;0.90;;;;;;;;;;5077657;28;20355;-70
2021/01/25 06:33:40;;;;;;;2.35;1.20;;;;;;;;;;5077017;28;20044;-69
2021/01/25 06:36:08;;;;;;;1.92;1.00;;;;;;;;;;5084601;28;20044;-69
2021/01/25 06:38:39;;;;;;;1.65;1.00;;;;;;;;;;5095187;28;20469;-65
2021/01/25 06:41:12;;;;;;;2.75;1.40;;;;;;;;;;5097230;28;20059;-68
2021/01/25 06:43:40;;;;;;;2.53;1.50;;;;;;;;;;5097575;28;20071;-68
2021/01/25 06:46:07;;;;;;;2.13;1.45;;;;;;;;;;5083371;28;20054;-69
2021/01/25 06:48:35;;;;;;;1.52;1.05;;;;;;;;;;5077298;28;20040;-67
2021/01/25 06:51:02;;;;;;;2.20;1.50;;;;;;;;;;5092932;28;20052;-69
2021/01/25 06:53:30;;;;;;;2.55;1.60;;;;;;;;;;5097768;28;20047;-69
2021/01/25 06:56:00;;;;;;;5.65;1.98;;;;;;;;;;5096799;28;20426;-69
2021/01/25 06:58:30;;;;;;;2.65;1.52;;;;;;;;;;5097288;28;20044;-69
2021/01/25 07:01:04;;;;;;;4.47;1.77;;;;;;;;;;5096753;28;20362;-69
2021/01/25 07:03:44;;;;;;;3.15;1.38;;;;;;;;;;5079835;28;20048;-69
2021/01/25 07:06:15;;;;;;;3.08;1.35;;;;;;;;;;5090318;28;20434;-69
2021/01/25 07:08:52;;;;;;;2.47;1.30;;;;;;;;;;5099446;28;20047;-69
2021/01/25 07:11:19;;;;;;;2.97;1.50;;;;;;;;;;5116654;28;20048;-68
2021/01/25 07:13:46;;;;;;;3.42;1.60;;;;;;;;;;5116449;28;20043;-62
2021/01/25 07:16:13;;;;;;;3.65;1.33;;;;;;;;;;5087649;28;20470;-69
2021/01/25 07:18:48;;;;;;;4.18;1.75;;;;;;;;;;5076640;28;20040;-70
2021/01/25 07:21:15;;;;;;;2.90;1.38;;;;;;;;;;5091459;28;20336;-69
2021/01/25 07:23:43;;;;;;;2.85;1.42;;;;;;;;;;5076601;28;20362;-69
2021/01/25 07:26:13;;;;;;;2.95;1.45;;;;;;;;;;5076615;28;20171;-69
2021/01/25 07:28:41;;;;;;;2.72;1.40;;;;;;;;;;5076319;28;20490;-69
2021/01/25 07:31:09;;;;;;;3.13;1.40;;;;;;;;;;5091626;28;20364;-68
2021/01/25 07:33:36;;;;;;;3.63;1.52;;;;;;;;;;5078845;28;20051;-65
2021/01/25 07:36:03;;;;;;;3.35;2.00;;;;;;;;;;5076367;28;20037;-70
2021/01/25 07:38:30;;;;;;;3.95;1.92;;;;;;;;;;5083992;28;20426;-69
2021/01/25 07:40:58;;;;;;;4.00;1.65;;;;;;;;;;5083681;28;20053;-69
2021/01/25 07:43:28;;;;;;;2.90;1.30;;;;;;;;;;5077326;28;20044;-69
2021/01/25 07:46:05;;;;;;;2.38;0.90;;;;;;;;;;5094489;28;20051;-69
2021/01/25 07:48:32;;;;;;;2.03;1.40;;;;;;;;;;5096451;28;20050;-68
2021/01/25 07:50:59;;;;;;;1.70;1.02;;;;;;;;;;5096125;28;20067;-70
2021/01/25 07:53:34;;;;;;;1.60;1.02;;;;;;;;;;5093485;28;20040;-70
2021/01/25 07:56:00;;;;;;;1.48;0.70;;;;;;;;;;5077710;28;20115;-69
2021/01/25 07:58:27;;;;;;;1.17;0.73;;;;;;;;;;5075954;28;20371;-68
2021/01/25 08:00:54;;;;;;;1.55;0.88;;;;;;;;;;5075746;28;20055;-69
2021/01/25 08:03:42;;;;;;;1.50;0.93;;;;;;;;;;5075842;28;20044;-69
2021/01/25 08:06:10;;;;;;;1.00;0.60;;;;;;;;;;5087655;28;20053;-69
2021/01/25 08:08:37;;;;;;;1.10;0.50;;;;;;;;;;5081013;28;20040;-67
2021/01/25 08:11:08;;;;;;;1.45;0.40;;;;;;;;;;5075529;28;20040;-65
2021/01/25 08:13:47;;;;;;;0.82;0.50;;;;;;;;;;5075676;28;20044;-69
2021/01/25 08:16:17;;;;;;;0.60;0.40;;;;;;;;;;5087587;28;20055;-66
2021/01/25 08:19:08;;;;;;;1.25;0.38;;;;;;;;;;5095782;28;20044;-64
2021/01/25 08:21:55;;;;;;;2.78;0.50;;;;;;;;;;5095680;28;20363;-64
2021/01/25 08:24:22;;;;;;;4.53;0.70;;;;;;;;;;5095458;28;20036;-65
2021/01/25 08:26:54;;;;;;;0.75;0.50;;;;;;;;;;5095345;28;20051;-68
2021/01/25 08:29:26;;;;;;;1.63;0.90;;;;;;;;;;5095421;28;20056;-68
2021/01/25 08:31:53;;;;;;;2.28;1.30;;;;;;;;;;5095735;28;20044;-68
2021/01/25 08:34:26;;;;;;;1.60;0.77;;;;;;;;;;5088961;28;20032;-67
2021/01/25 08:37:00;;;;;;;1.27;0.70;;;;;;;;;;5092365;28;20047;-67
2021/01/25 08:39:34;;;;;;;0.95;0.65;;;;;;;;;;5095429;28;20032;-69
2021/01/25 08:42:02;;;;;;;1.40;0.80;;;;;;;;;;5095541;28;20358;-70
2021/01/25 08:44:29;;;;;;;1.05;0.60;;;;;;;;;;5095158;28;20075;-69
2021/01/25 08:47:05;;;;;;;1.30;0.70;;;;;;;;;;5092194;28;20043;-65
2021/01/25 08:49:40;;;;;;;1.33;0.70;;;;;;;;;;5077357;28;20354;-68
2021/01/25 08:52:22;;;;;;;1.35;0.73;;;;;;;;;;5095705;28;20055;-68
2021/01/25 08:54:49;;;;;;;1.77;0.90;;;;;;;;;;5075105;28;20471;-69
2021/01/25 08:57:32;;;;;;;1.98;1.10;;;;;;;;;;5078416;28;20354;-64
2021/01/25 09:00:16;;;;;;;1.67;0.93;;;;;;;;;;5075024;28;20036;-69
2021/01/25 09:02:44;;;;;;;1.45;0.82;;;;;;;;;;5075165;28;20037;-69
2021/01/25 09:05:12;;;;;;;1.33;0.43;;;;;;;;;;5076922;28;20040;-69
2021/01/25 09:07:38;;;;;;;1.60;0.52;;;;;;;;;;5095202;28;20032;-69
2021/01/25 09:10:06;;;;;;;2.13;1.30;;;;;;;;;;5095143;28;20043;-70
2021/01/25 09:12:33;;;;;;;0.90;0.60;;;;;;;;;;5075008;28;20051;-69
2021/01/25 09:15:00;;;;;;;1.83;1.20;;;;;;;;;;5074711;28;20044;-69
2021/01/25 09:17:27;;;;;;;2.85;1.20;;;;;;;;;;5081537;28;20032;-69
2021/01/25 09:19:54;;;;;;;1.33;0.65;;;;;;;;;;5079430;28;20044;-67
2021/01/25 09:22:20;;;;;;;1.85;1.05;;;;;;;;;;5094840;28;20048;-69
2021/01/25 09:24:48;;;;;;;1.67;0.90;;;;;;;;;;5095128;28;20052;-69
2021/01/25 09:27:15;;;;;;;2.03;1.38;;;;;;;;;;5095180;28;20644;-69
2021/01/25 09:29:42;;;;;;;1.98;1.20;;;;;;;;;;5076715;28;20037;-69
2021/01/25 09:32:09;;;;;;;2.50;1.38;;;;;;;;;;5086602;28;20055;-69
2021/01/25 09:34:36;;;;;;;1.75;1.08;;;;;;;;;;5075007;28;20051;-69
2021/01/25 09:37:07;;;;;;;0.70;0.45;;;;;;;;;;5076276;28;20045;-69
2021/01/25 09:39:34;;;;;;;1.13;0.50;;;;;;;;;;5078425;28;20451;-69
2021/01/25 09:42:01;;;;;;;1.00;0.50;;;;;;;;;;5089065;28;20044;-69
2021/01/25 09:44:28;;;;;;;0.90;0.30;;;;;;;;;;5098816;28;20048;-70
2021/01/25 09:46:56;;;;;;;0.95;0.50;;;;;;;;;;5078250;28;20036;-69
2021/01/25 09:49:24;;;;;;;1.10;0.65;;;;;;;;;;5078112;28;20037;-69
2021/01/25 09:51:50;;;;;;;1.08;0.60;;;;;;;;;;5078964;28;20068;-68
2021/01/25 09:54:17;;;;;;;1.30;0.80;;;;;;;;;;5078275;28;20055;-69
2021/01/25 09:56:44;;;;;;;1.60;0.75;;;;;;;;;;5078232;28;20036;-68
2021/01/25 09:59:11;;;;;;;1.15;0.50;;;;;;;;;;5078160;28;20037;-69
2021/01/25 10:01:38;;;;;;;1.52;0.73;;;;;;;;;;5081138;28;20048;-69
2021/01/25 10:04:05;;;;;;;0.98;0.65;;;;;;;;;;5078083;28;20047;-67
2021/01/25 10:06:32;;;;;;;1.70;0.93;;;;;;;;;;5078019;28;20048;-69
2021/01/25 10:08:59;;;;;;;1.10;0.63;;;;;;;;;;5077882;28;20316;-64
2021/01/25 10:11:26;;;;;;;1.33;0.80;;;;;;;;;;5082533;28;20442;-68
2021/01/25 10:13:53;;;;;;;2.40;0.77;;;;;;;;;;5098193;28;20047;-69
2021/01/25 10:16:20;;;;;;;1.13;0.60;;;;;;;;;;5079416;28;20039;-69
2021/01/25 10:18:47;;;;;;;1.58;0.80;;;;;;;;;;5077677;28;20052;-68
2021/01/25 10:21:16;;;;;;;2.05;1.00;;;;;;;;;;5097175;28;20056;-68
2021/01/25 10:24:02;;;;;;;0.95;0.40;;;;;;;;;;5098152;28;20035;-69
2021/01/25 10:26:28;;;;;;;1.88;0.80;;;;;;;;;;5098023;28;20056;-69
2021/01/25 10:28:55;;;;;;;0.65;0.40;;;;;;;;;;5097822;28;20043;-69
2021/01/25 10:31:22;;;;;;;1.00;0.50;;;;;;;;;;5097573;28;20036;-69
2021/01/25 10:33:49;;;;;;;1.05;0.60;;;;;;;;;;5096930;28;20052;-69
2021/01/25 10:36:15;;;;;;;1.20;0.73;;;;;;;;;;5097841;28;20048;-69
2021/01/25 10:38:44;;;;;;;1.10;0.60;;;;;;;;;;5097667;28;20036;-69
2021/01/25 10:41:12;;;;;;;1.20;0.70;;;;;;;;;;5097466;28;20051;-70
2021/01/25 10:43:39;;;;;;;2.08;0.90;;;;;;;;;;5097428;28;20040;-69
2021/01/25 10:46:06;;;;;;;1.40;0.60;;;;;;;;;;5083782;28;20037;-69
2021/01/25 10:48:33;;;;;;;1.10;0.50;;;;;;;;;;5077189;28;20451;-69
2021/01/25 10:50:59;;;;;;;0.75;0.40;;;;;;;;;;5062044;28;20069;-70
2021/01/25 10:53:26;;;;;;;0.75;0.50;;;;;;;;;;5058858;28;20045;-69
2021/01/25 10:55:53;;;;;;;1.25;0.55;;;;;;;;;;5077152;28;20359;-69
2021/01/25 10:58:20;;;;;;;1.10;0.50;;;;;;;;;;5077173;28;20040;-69
2021/01/25 11:00:47;;;;;;;1.45;0.75;;;;;;;;;;5064832;28;20048;-69
2021/01/25 11:03:14;;;;;;;1.10;0.70;;;;;;;;;;5057127;28;20444;-68
2021/01/25 11:05:40;;;;;;;1.25;0.70;;;;;;;;;;5076508;28;20366;-69
2021/01/25 11:08:07;;;;;;;0.90;0.60;;;;;;;;;;5076945;28;20048;-69
2021/01/25 11:10:34;;;;;;;1.48;0.82;;;;;;;;;;5063842;28;20093;-68
2021/01/25 11:13:01;;;;;;;1.65;0.95;;;;;;;;;;5039311;28;20044;-68
2021/01/25 11:15:28;;;;;;;1.73;1.20;;;;;;;;;;5063967;28;20071;-69
2021/01/25 11:17:54;;;;;;;1.90;1.55;;;;;;;;;;5056702;28;20164;-69
2021/01/25 11:20:21;;;;;;;2.88;1.60;;;;;;;;;;5038811;28;20051;-69
2021/01/25 11:22:48;;;;;;;3.80;1.50;;;;;;;;;;5056429;28;20052;-67
2021/01/25 11:25:15;;;;;;;1.90;1.40;;;;;;;;;;5071885;28;20040;-69
2021/01/25 11:27:42;;;;;;;2.78;1.70;;;;;;;;;;5074742;28;20043;-67
2021/01/25 11:30:10;;;;;;;2.63;1.70;;;;;;;;;;5058916;28;20071;-61
2021/01/25 11:32:36;;;;;;;3.40;1.80;;;;;;;;;;5056400;28;20045;-58
2021/01/25 11:35:04;;;;;;;2.22;1.50;;;;;;;;;;5069775;28;20040;-68
2021/01/25 11:37:31;;;;;;;3.47;1.95;;;;;;;;;;5076312;28;20048;-68
2021/01/25 11:39:58;;;;;;;3.13;2.22;;;;;;;;;;5076203;28;20059;-68
2021/01/25 11:42:24;;;;;;;4.00;2.20;;;;;;;;;;5076236;28;20064;-68
2021/01/25 11:44:51;;;;;;;4.55;2.00;;;;;;;;;;5072342;28;20052;-69
2021/01/25 11:47:18;;;;;;;2.90;1.52;;;;;;;;;;5056180;28;20041;-67
2021/01/25 11:49:45;;;;;;;2.63;1.40;;;;;;;;;;5055838;28;20057;-65
2021/01/25 11:52:11;;;;;;;2.95;1.52;;;;;;;;;;5056037;28;20045;-66
2021/01/25 11:54:38;;;;;;;2.78;1.70;;;;;;;;;;5065274;28;20469;-66
2021/01/25 11:57:06;;;;;;;3.55;2.15;;;;;;;;;;5075935;28;20041;-68
2021/01/25 11:59:32;;;;;;;3.75;1.45;;;;;;;;;;5075278;28;20048;-65
2021/01/25 12:01:59;;;;;;;1.90;1.20;;;;;;;;;;5075865;28;20044;-66
2021/01/25 12:04:27;;;;;;;2.30;1.50;;;;;;;;;;5075542;28;20040;-68
2021/01/25 12:06:54;;;;;;;5.38;1.58;;;;;;;;;;5075729;28;20032;-68
2021/01/25 12:09:22;;;;;;;2.13;1.45;;;;;;;;;;5075509;28;20040;-69
2021/01/25 12:11:48;;;;;;;2.17;1.40;;;;;;;;;;5075717;28;20358;-65
2021/01/25 12:14:15;;;;;;;8.05;5.40;;;;;;;;;;5081267;28;20039;-69
2021/01/25 12:16:52;;;;;;;3.78;2.35;;;;;;;;;;5055583;28;20052;-69
2021/01/25 12:19:19;;;;;;;1.98;1.20;;;;;;;;;;5054604;28;20044;-66
2021/01/25 12:21:46;;;;;;;1.88;1.35;;;;;;;;;;5055515;28;20363;-66
2021/01/25 12:24:13;;;;;;;1.85;1.50;;;;;;;;;;5042871;28;20378;-65
2021/01/25 12:26:39;;;;;;;5.97;1.67;;;;;;;;;;5075500;28;20037;-67
2021/01/25 12:29:06;;;;;;;2.08;1.27;;;;;;;;;;5075365;28;20042;-65
2021/01/25 12:31:33;;;;;;;2.13;1.33;;;;;;;;;;5075531;28;20363;-66
2021/01/25 12:34:00;;;;;;;2.95;1.40;;;;;;;;;;5075179;28;20053;-66
2021/01/25 12:36:27;;;;;;;2.33;1.75;;;;;;;;;;5075511;28;20435;-67
2021/01/25 12:38:56;;;;;;;4.20;1.58;;;;;;;;;;5075117;28;20041;-66
2021/01/25 12:41:23;;;;;;;2.22;1.60;;;;;;;;;;5075264;28;20422;-67
2021/01/25 12:43:49;;;;;;;2.65;1.48;;;;;;;;;;5075059;28;20075;-66
2021/01/25 12:46:16;;;;;;;3.67;2.75;;;;;;;;;;5060160;28;20037;-61
2021/01/25 12:48:43;;;;;;;4.10;2.55;;;;;;;;;;5055050;28;20432;-67
2021/01/25 12:51:10;;;;;;;6.40;4.00;;;;;;;;;;5054808;28;20060;-65
2021/01/25 12:53:37;;;;;;;4.20;3.00;;;;;;;;;;5055196;28;20440;-64
2021/01/25 12:56:04;;;;;;;2.92;2.13;;;;;;;;;;5074379;28;20045;-68
2021/01/25 12:58:31;;;;;;;2.30;0.93;;;;;;;;;;5060572;28;20037;-63
2021/01/25 13:00:57;;;;;;;2.20;1.20;;;;;;;;;;5054860;28;20037;-61
2021/01/25 13:03:24;;;;;;;2.00;1.40;;;;;;;;;;5054103;28;20076;-61
2021/01/25 13:05:51;;;;;;;2.60;1.15;;;;;;;;;;5054812;28;20036;-65
2021/01/25 13:08:18;;;;;;;3.58;1.27;;;;;;;;;;5075132;28;20047;-68
2021/01/25 13:10:45;;;;;;;2.15;1.33;;;;;;;;;;5074730;28;20039;-67
2021/01/25 13:13:11;;;;;;;1.70;1.30;;;;;;;;;;5061067;28;20048;-64
2021/01/25 13:15:38;;;;;;;2.13;1.00;;;;;;;;;;5063215;28;20048;-67
2021/01/25 13:18:05;;;;;;;2.55;0.90;;;;;;;;;;5059027;28;20348;-67